sensor_id;sensor_type;location;lat;lon;timestamp;temperature;humidity
37380;DHT22;23252;-33.992;18.480;2023-05-31T00:00:17;14.20;99.90
37380;DHT22;23252;-33.992;18.480;2023-05-31T00:02:44;14.10;99.90
37380;DHT22;23252;-33.992;18.480;2023-05-31T00:05:10;14.10;99.90
37380;DHT22;23252;-33.992;18.480;2023-05-31T00:07:37;14.20;99.90
37380;DHT22;23252;-33.992;18.480;2023-05-31T00:10:04;14.20;99.90
37380;DHT22;23252;-33.992;18.480;2023-05-31T00:12:30;14.20;99.90
37380;DHT22;23252;-33.992;18.480;2023-05-31T00:14:57;14.20;99.90
37380;DHT22;23252;-33.992;18.480;2023-05-31T00:17:23;14.20;99.90
37380;DHT22;23252;-33.992;18.480;2023-05-31T00:19:50;14.20;99.90
37380;DHT22;23252;-33.992;18.480;2023-05-31T00:22:16;14.30;99.90
37380;DHT22;23252;-33.992;18.480;2023-05-31T00:24:43;14.40;99.90
37380;DHT22;23252;-33.992;18.480;2023-05-31T00:27:10;14.50;99.90
37380;DHT22;23252;-33.992;18.480;2023-05-31T00:29:37;14.50;99.90
37380;DHT22;23252;-33.992;18.480;2023-05-31T00:32:03;14.50;99.90
37380;DHT22;23252;-33.992;18.480;2023-05-31T00:34:30;14.60;99.90
37380;DHT22;23252;-33.992;18.480;2023-05-31T00:36:56;14.60;99.90
37380;DHT22;23252;-33.992;18.480;2023-05-31T00:39:23;14.60;99.90
37380;DHT22;23252;-33.992;18.480;2023-05-31T00:41:49;14.60;99.90
37380;DHT22;23252;-33.992;18.480;2023-05-31T00:44:16;14.60;99.90
37380;DHT22;23252;-33.992;18.480;2023-05-31T00:46:42;14.60;99.90
37380;DHT22;23252;-33.992;18.480;2023-05-31T00:49:09;14.60;99.90
37380;DHT22;23252;-33.992;18.480;2023-05-31T00:51:36;14.60;99.90
37380;DHT22;23252;-33.992;18.480;2023-05-31T00:54:03;14.70;99.90
37380;DHT22;23252;-33.992;18.480;2023-05-31T00:56:29;14.70;99.90
37380;DHT22;23252;-33.992;18.480;2023-05-31T00:59:00;14.70;99.90
37380;DHT22;23252;-33.992;18.480;2023-05-31T01:01:27;14.70;99.90
37380;DHT22;23252;-33.992;18.480;2023-05-31T01:03:59;14.80;99.90
37380;DHT22;23252;-33.992;18.480;2023-05-31T01:06:27;14.80;99.90
37380;DHT22;23252;-33.992;18.480;2023-05-31T01:09:07;14.80;99.90
37380;DHT22;23252;-33.992;18.480;2023-05-31T01:12:02;14.90;99.90
37380;DHT22;23252;-33.992;18.480;2023-05-31T01:20:00;14.90;99.90
37380;DHT22;23252;-33.992;18.480;2023-05-31T01:28:21;15.00;99.90
37380;DHT22;23252;-33.992;18.480;2023-05-31T01:30:51;15.00;99.90
37380;DHT22;23252;-33.992;18.480;2023-05-31T01:33:19;15.00;99.90
37380;DHT22;23252;-33.992;18.480;2023-05-31T01:35:46;15.00;99.90
37380;DHT22;23252;-33.992;18.480;2023-05-31T01:38:13;15.00;99.90
37380;DHT22;23252;-33.992;18.480;2023-05-31T01:40:40;15.10;99.90
37380;DHT22;23252;-33.992;18.480;2023-05-31T01:43:07;15.10;99.90
37380;DHT22;23252;-33.992;18.480;2023-05-31T01:45:35;15.10;99.90
37380;DHT22;23252;-33.992;18.480;2023-05-31T01:48:04;15.10;99.90
37380;DHT22;23252;-33.992;18.480;2023-05-31T01:50:33;15.10;99.90
37380;DHT22;23252;-33.992;18.480;2023-05-31T01:53:02;15.10;99.90
37380;DHT22;23252;-33.992;18.480;2023-05-31T01:55:29;15.10;99.90
37380;DHT22;23252;-33.992;18.480;2023-05-31T01:57:56;15.00;99.90
37380;DHT22;23252;-33.992;18.480;2023-05-31T02:00:25;15.00;99.90
37380;DHT22;23252;-33.992;18.480;2023-05-31T02:02:52;15.00;99.90
37380;DHT22;23252;-33.992;18.480;2023-05-31T02:05:19;15.00;99.90
37380;DHT22;23252;-33.992;18.480;2023-05-31T02:07:46;15.00;99.90
37380;DHT22;23252;-33.992;18.480;2023-05-31T02:10:16;14.90;99.90
37380;DHT22;23252;-33.992;18.480;2023-05-31T02:12:43;15.00;99.90
37380;DHT22;23252;-33.992;18.480;2023-05-31T02:15:09;14.90;99.90
37380;DHT22;23252;-33.992;18.480;2023-05-31T02:17:40;15.00;99.90
37380;DHT22;23252;-33.992;18.480;2023-05-31T02:20:10;15.00;99.90
37380;DHT22;23252;-33.992;18.480;2023-05-31T02:22:42;15.00;99.90
37380;DHT22;23252;-33.992;18.480;2023-05-31T02:25:10;15.00;99.90
37380;DHT22;23252;-33.992;18.480;2023-05-31T02:27:38;15.00;99.90
37380;DHT22;23252;-33.992;18.480;2023-05-31T02:30:06;15.10;99.90
37380;DHT22;23252;-33.992;18.480;2023-05-31T02:32:33;15.10;99.90
37380;DHT22;23252;-33.992;18.480;2023-05-31T02:35:11;15.10;99.90
37380;DHT22;23252;-33.992;18.480;2023-05-31T02:37:38;15.10;99.90
37380;DHT22;23252;-33.992;18.480;2023-05-31T02:40:06;15.10;99.90
37380;DHT22;23252;-33.992;18.480;2023-05-31T02:42:41;15.10;99.90
37380;DHT22;23252;-33.992;18.480;2023-05-31T02:45:09;15.10;99.90
37380;DHT22;23252;-33.992;18.480;2023-05-31T02:47:37;15.20;99.90
37380;DHT22;23252;-33.992;18.480;2023-05-31T02:50:05;15.20;99.90
37380;DHT22;23252;-33.992;18.480;2023-05-31T02:52:32;15.20;99.90
37380;DHT22;23252;-33.992;18.480;2023-05-31T02:54:59;15.20;99.90
37380;DHT22;23252;-33.992;18.480;2023-05-31T02:57:25;15.20;99.90
37380;DHT22;23252;-33.992;18.480;2023-05-31T03:00:00;15.20;99.90
37380;DHT22;23252;-33.992;18.480;2023-05-31T03:02:34;15.30;99.90
37380;DHT22;23252;-33.992;18.480;2023-05-31T03:05:01;15.20;99.90
37380;DHT22;23252;-33.992;18.480;2023-05-31T03:07:30;15.20;99.90
37380;DHT22;23252;-33.992;18.480;2023-05-31T03:09:56;15.30;99.90
37380;DHT22;23252;-33.992;18.480;2023-05-31T03:12:23;15.30;99.90
37380;DHT22;23252;-33.992;18.480;2023-05-31T03:14:49;15.30;99.90
37380;DHT22;23252;-33.992;18.480;2023-05-31T03:17:16;15.30;99.90
37380;DHT22;23252;-33.992;18.480;2023-05-31T03:19:42;15.30;99.90
37380;DHT22;23252;-33.992;18.480;2023-05-31T03:22:09;15.30;99.90
37380;DHT22;23252;-33.992;18.480;2023-05-31T03:24:35;15.30;99.90
37380;DHT22;23252;-33.992;18.480;2023-05-31T03:27:02;15.40;99.90
37380;DHT22;23252;-33.992;18.480;2023-05-31T03:29:29;15.40;99.90
37380;DHT22;23252;-33.992;18.480;2023-05-31T03:31:55;15.40;99.90
37380;DHT22;23252;-33.992;18.480;2023-05-31T03:34:22;15.40;99.90
37380;DHT22;23252;-33.992;18.480;2023-05-31T03:36:48;15.40;99.90
37380;DHT22;23252;-33.992;18.480;2023-05-31T03:39:15;15.40;99.90
37380;DHT22;23252;-33.992;18.480;2023-05-31T03:41:41;15.30;99.90
37380;DHT22;23252;-33.992;18.480;2023-05-31T03:44:08;15.30;99.90
37380;DHT22;23252;-33.992;18.480;2023-05-31T03:46:34;15.30;99.90
37380;DHT22;23252;-33.992;18.480;2023-05-31T03:49:01;15.30;99.90
37380;DHT22;23252;-33.992;18.480;2023-05-31T03:51:28;15.30;99.90
37380;DHT22;23252;-33.992;18.480;2023-05-31T03:53:54;15.30;99.90
37380;DHT22;23252;-33.992;18.480;2023-05-31T03:56:21;15.30;99.90
37380;DHT22;23252;-33.992;18.480;2023-05-31T03:58:48;15.30;99.90
37380;DHT22;23252;-33.992;18.480;2023-05-31T04:01:14;15.30;99.90
37380;DHT22;23252;-33.992;18.480;2023-05-31T04:03:41;15.30;99.90
37380;DHT22;23252;-33.992;18.480;2023-05-31T06:16:21;15.60;99.90
37380;DHT22;23252;-33.992;18.480;2023-05-31T06:18:48;15.80;99.90
37380;DHT22;23252;-33.992;18.480;2023-05-31T06:21:15;15.80;99.90
37380;DHT22;23252;-33.992;18.480;2023-05-31T06:23:41;15.80;99.90
37380;DHT22;23252;-33.992;18.480;2023-05-31T06:26:08;15.80;99.90
37380;DHT22;23252;-33.992;18.480;2023-05-31T06:28:34;15.80;99.90
37380;DHT22;23252;-33.992;18.480;2023-05-31T06:31:02;15.70;99.90
37380;DHT22;23252;-33.992;18.480;2023-05-31T06:33:29;15.70;99.90
37380;DHT22;23252;-33.992;18.480;2023-05-31T06:35:55;15.80;99.90
37380;DHT22;23252;-33.992;18.480;2023-05-31T06:38:22;15.80;99.90
37380;DHT22;23252;-33.992;18.480;2023-05-31T06:40:49;15.80;99.90
37380;DHT22;23252;-33.992;18.480;2023-05-31T06:43:16;15.90;99.90
37380;DHT22;23252;-33.992;18.480;2023-05-31T06:45:42;15.90;99.90
37380;DHT22;23252;-33.992;18.480;2023-05-31T06:48:09;15.90;99.90
37380;DHT22;23252;-33.992;18.480;2023-05-31T06:50:35;15.90;99.90
37380;DHT22;23252;-33.992;18.480;2023-05-31T06:53:02;15.90;99.90
37380;DHT22;23252;-33.992;18.480;2023-05-31T06:55:29;15.90;99.90
37380;DHT22;23252;-33.992;18.480;2023-05-31T06:57:55;16.00;99.90
37380;DHT22;23252;-33.992;18.480;2023-05-31T07:00:22;16.00;99.90
37380;DHT22;23252;-33.992;18.480;2023-05-31T07:02:48;16.00;99.90
37380;DHT22;23252;-33.992;18.480;2023-05-31T07:05:15;16.00;99.90
37380;DHT22;23252;-33.992;18.480;2023-05-31T07:07:42;16.00;99.90
37380;DHT22;23252;-33.992;18.480;2023-05-31T07:10:08;16.10;99.90
37380;DHT22;23252;-33.992;18.480;2023-05-31T07:12:35;16.20;99.90
37380;DHT22;23252;-33.992;18.480;2023-05-31T07:15:02;16.20;99.90
37380;DHT22;23252;-33.992;18.480;2023-05-31T07:17:28;16.30;99.90
37380;DHT22;23252;-33.992;18.480;2023-05-31T07:19:55;16.20;99.90
37380;DHT22;23252;-33.992;18.480;2023-05-31T07:22:22;16.20;99.90
37380;DHT22;23252;-33.992;18.480;2023-05-31T07:24:49;16.30;99.90
37380;DHT22;23252;-33.992;18.480;2023-05-31T07:27:19;16.20;99.90
37380;DHT22;23252;-33.992;18.480;2023-05-31T07:29:46;16.20;99.90
37380;DHT22;23252;-33.992;18.480;2023-05-31T07:32:12;16.20;99.90
37380;DHT22;23252;-33.992;18.480;2023-05-31T07:34:39;16.20;99.90
37380;DHT22;23252;-33.992;18.480;2023-05-31T07:37:06;16.20;99.90
37380;DHT22;23252;-33.992;18.480;2023-05-31T07:39:32;16.20;99.90
37380;DHT22;23252;-33.992;18.480;2023-05-31T07:41:59;16.20;99.90
37380;DHT22;23252;-33.992;18.480;2023-05-31T07:44:26;16.20;99.90
37380;DHT22;23252;-33.992;18.480;2023-05-31T07:46:52;16.20;99.90
37380;DHT22;23252;-33.992;18.480;2023-05-31T07:49:19;16.20;99.90
37380;DHT22;23252;-33.992;18.480;2023-05-31T07:51:45;16.20;99.90
37380;DHT22;23252;-33.992;18.480;2023-05-31T07:54:12;16.20;99.90
37380;DHT22;23252;-33.992;18.480;2023-05-31T07:56:38;16.30;99.90
37380;DHT22;23252;-33.992;18.480;2023-05-31T07:59:06;16.30;99.90
37380;DHT22;23252;-33.992;18.480;2023-05-31T08:01:32;16.40;99.90
37380;DHT22;23252;-33.992;18.480;2023-05-31T08:04:12;16.40;99.90
37380;DHT22;23252;-33.992;18.480;2023-05-31T08:06:38;16.40;99.90
37380;DHT22;23252;-33.992;18.480;2023-05-31T08:09:05;16.50;99.90
37380;DHT22;23252;-33.992;18.480;2023-05-31T08:11:32;16.60;99.90
37380;DHT22;23252;-33.992;18.480;2023-05-31T08:14:01;16.60;99.90
37380;DHT22;23252;-33.992;18.480;2023-05-31T08:16:29;16.70;99.90
37380;DHT22;23252;-33.992;18.480;2023-05-31T08:18:56;16.80;99.90
37380;DHT22;23252;-33.992;18.480;2023-05-31T08:21:22;16.90;99.90
37380;DHT22;23252;-33.992;18.480;2023-05-31T08:23:49;16.90;99.90
37380;DHT22;23252;-33.992;18.480;2023-05-31T08:26:16;16.90;99.90
37380;DHT22;23252;-33.992;18.480;2023-05-31T08:28:42;16.90;99.90
37380;DHT22;23252;-33.992;18.480;2023-05-31T08:31:09;16.90;99.90
37380;DHT22;23252;-33.992;18.480;2023-05-31T08:33:35;16.90;99.90
37380;DHT22;23252;-33.992;18.480;2023-05-31T08:36:02;16.80;99.90
37380;DHT22;23252;-33.992;18.480;2023-05-31T08:38:30;16.80;99.90
37380;DHT22;23252;-33.992;18.480;2023-05-31T08:41:01;16.80;99.90
37380;DHT22;23252;-33.992;18.480;2023-05-31T08:43:28;16.80;99.90
37380;DHT22;23252;-33.992;18.480;2023-05-31T08:45:56;16.80;99.90
37380;DHT22;23252;-33.992;18.480;2023-05-31T08:48:53;16.90;99.90
37380;DHT22;23252;-33.992;18.480;2023-05-31T08:51:19;16.90;99.90
37380;DHT22;23252;-33.992;18.480;2023-05-31T08:53:47;16.90;99.90
37380;DHT22;23252;-33.992;18.480;2023-05-31T08:56:14;16.90;99.90
37380;DHT22;23252;-33.992;18.480;2023-05-31T08:58:42;16.90;99.90
37380;DHT22;23252;-33.992;18.480;2023-05-31T09:01:09;16.90;99.90
37380;DHT22;23252;-33.992;18.480;2023-05-31T09:03:36;16.90;99.90
37380;DHT22;23252;-33.992;18.480;2023-05-31T09:06:03;16.90;99.90
37380;DHT22;23252;-33.992;18.480;2023-05-31T09:08:30;16.90;99.90
37380;DHT22;23252;-33.992;18.480;2023-05-31T09:11:01;16.80;99.90
37380;DHT22;23252;-33.992;18.480;2023-05-31T09:13:28;16.80;99.90
37380;DHT22;23252;-33.992;18.480;2023-05-31T09:15:55;16.70;99.90
37380;DHT22;23252;-33.992;18.480;2023-05-31T09:18:22;16.70;99.90
37380;DHT22;23252;-33.992;18.480;2023-05-31T09:20:51;16.70;99.90
37380;DHT22;23252;-33.992;18.480;2023-05-31T09:23:19;16.70;99.90
37380;DHT22;23252;-33.992;18.480;2023-05-31T09:25:47;16.70;99.90
37380;DHT22;23252;-33.992;18.480;2023-05-31T09:28:14;16.70;99.90
37380;DHT22;23252;-33.992;18.480;2023-05-31T09:30:42;16.70;99.90
37380;DHT22;23252;-33.992;18.480;2023-05-31T09:33:09;16.60;99.90
37380;DHT22;23252;-33.992;18.480;2023-05-31T09:35:36;16.60;99.90
37380;DHT22;23252;-33.992;18.480;2023-05-31T09:38:05;16.60;99.90
37380;DHT22;23252;-33.992;18.480;2023-05-31T09:40:32;16.50;99.90
37380;DHT22;23252;-33.992;18.480;2023-05-31T09:42:59;16.50;99.90
37380;DHT22;23252;-33.992;18.480;2023-05-31T09:45:26;16.50;99.90
37380;DHT22;23252;-33.992;18.480;2023-05-31T09:47:54;16.50;99.90
37380;DHT22;23252;-33.992;18.480;2023-05-31T09:50:22;16.50;99.90
37380;DHT22;23252;-33.992;18.480;2023-05-31T09:52:54;16.50;99.90
37380;DHT22;23252;-33.992;18.480;2023-05-31T09:55:21;16.40;99.90
37380;DHT22;23252;-33.992;18.480;2023-05-31T09:57:52;16.50;99.90
37380;DHT22;23252;-33.992;18.480;2023-05-31T10:00:19;16.50;99.90
37380;DHT22;23252;-33.992;18.480;2023-05-31T10:02:53;16.50;99.90
37380;DHT22;23252;-33.992;18.480;2023-05-31T10:05:21;16.50;99.90
37380;DHT22;23252;-33.992;18.480;2023-05-31T10:07:51;16.50;99.90
37380;DHT22;23252;-33.992;18.480;2023-05-31T10:10:18;16.50;99.90
37380;DHT22;23252;-33.992;18.480;2023-05-31T10:12:50;16.50;99.90
37380;DHT22;23252;-33.992;18.480;2023-05-31T10:15:22;16.60;99.90
37380;DHT22;23252;-33.992;18.480;2023-05-31T10:17:55;16.60;99.90
37380;DHT22;23252;-33.992;18.480;2023-05-31T10:20:28;16.70;99.90
37380;DHT22;23252;-33.992;18.480;2023-05-31T10:23:00;16.60;99.90
37380;DHT22;23252;-33.992;18.480;2023-05-31T10:25:31;16.70;99.90
37380;DHT22;23252;-33.992;18.480;2023-05-31T10:28:06;16.70;99.90
37380;DHT22;23252;-33.992;18.480;2023-05-31T10:30:35;16.80;99.90
37380;DHT22;23252;-33.992;18.480;2023-05-31T10:33:10;16.80;99.90
37380;DHT22;23252;-33.992;18.480;2023-05-31T10:35:37;16.80;99.90
37380;DHT22;23252;-33.992;18.480;2023-05-31T10:38:04;16.80;99.90
37380;DHT22;23252;-33.992;18.480;2023-05-31T10:43:34;16.80;99.90
37380;DHT22;23252;-33.992;18.480;2023-05-31T10:46:10;16.90;99.90
37380;DHT22;23252;-33.992;18.480;2023-05-31T10:48:58;16.80;99.90
37380;DHT22;23252;-33.992;18.480;2023-05-31T10:51:42;16.70;99.90
37380;DHT22;23252;-33.992;18.480;2023-05-31T10:54:18;16.80;99.90
37380;DHT22;23252;-33.992;18.480;2023-05-31T10:56:56;16.80;99.90
37380;DHT22;23252;-33.992;18.480;2023-05-31T10:59:25;16.80;99.90
37380;DHT22;23252;-33.992;18.480;2023-05-31T11:01:52;16.80;99.90
37380;DHT22;23252;-33.992;18.480;2023-05-31T11:04:23;16.80;99.90
37380;DHT22;23252;-33.992;18.480;2023-05-31T11:06:55;16.90;99.90
37380;DHT22;23252;-33.992;18.480;2023-05-31T11:09:38;17.10;99.90
37380;DHT22;23252;-33.992;18.480;2023-05-31T11:12:05;17.00;99.90
37380;DHT22;23252;-33.992;18.480;2023-05-31T11:14:32;17.10;99.90
37380;DHT22;23252;-33.992;18.480;2023-05-31T11:19:31;17.30;99.90
37380;DHT22;23252;-33.992;18.480;2023-05-31T11:22:08;17.40;99.90
37380;DHT22;23252;-33.992;18.480;2023-05-31T11:27:12;17.20;99.90
37380;DHT22;23252;-33.992;18.480;2023-05-31T11:32:21;17.10;99.90
37380;DHT22;23252;-33.992;18.480;2023-05-31T11:34:55;17.20;99.90
37380;DHT22;23252;-33.992;18.480;2023-05-31T11:37:31;17.20;99.90
37380;DHT22;23252;-33.992;18.480;2023-05-31T11:40:02;17.10;99.90
37380;DHT22;23252;-33.992;18.480;2023-05-31T11:42:33;17.10;99.90
37380;DHT22;23252;-33.992;18.480;2023-05-31T11:45:20;17.10;99.90
37380;DHT22;23252;-33.992;18.480;2023-05-31T11:50:18;17.10;99.90
37380;DHT22;23252;-33.992;18.480;2023-05-31T11:52:45;17.10;99.90
37380;DHT22;23252;-33.992;18.480;2023-05-31T11:55:14;17.10;99.90
37380;DHT22;23252;-33.992;18.480;2023-05-31T11:57:42;17.10;99.90
37380;DHT22;23252;-33.992;18.480;2023-05-31T12:00:11;17.10;99.90
37380;DHT22;23252;-33.992;18.480;2023-05-31T12:02:45;17.10;99.90
37380;DHT22;23252;-33.992;18.480;2023-05-31T12:05:12;17.10;99.90
37380;DHT22;23252;-33.992;18.480;2023-05-31T12:07:38;17.10;99.90
37380;DHT22;23252;-33.992;18.480;2023-05-31T14:14:58;16.90;99.90
37380;DHT22;23252;-33.992;18.480;2023-05-31T14:17:24;17.10;99.90
37380;DHT22;23252;-33.992;18.480;2023-05-31T14:19:51;17.10;99.90
37380;DHT22;23252;-33.992;18.480;2023-05-31T14:22:17;17.10;99.90
37380;DHT22;23252;-33.992;18.480;2023-05-31T14:24:44;17.10;99.90
37380;DHT22;23252;-33.992;18.480;2023-05-31T14:29:42;17.10;99.90
37380;DHT22;23252;-33.992;18.480;2023-05-31T14:32:09;17.10;99.90
37380;DHT22;23252;-33.992;18.480;2023-05-31T14:34:38;17.10;99.90
37380;DHT22;23252;-33.992;18.480;2023-05-31T14:37:05;17.10;99.90
37380;DHT22;23252;-33.992;18.480;2023-05-31T14:39:32;17.10;99.90
37380;DHT22;23252;-33.992;18.480;2023-05-31T14:41:59;17.10;99.90
37380;DHT22;23252;-33.992;18.480;2023-05-31T14:44:25;17.10;99.90
37380;DHT22;23252;-33.992;18.480;2023-05-31T14:46:52;17.00;99.90
37380;DHT22;23252;-33.992;18.480;2023-05-31T14:49:19;17.00;99.90
37380;DHT22;23252;-33.992;18.480;2023-05-31T14:51:45;17.00;99.90
37380;DHT22;23252;-33.992;18.480;2023-05-31T14:54:12;17.00;99.90
37380;DHT22;23252;-33.992;18.480;2023-05-31T14:56:38;17.00;99.90
37380;DHT22;23252;-33.992;18.480;2023-05-31T14:59:05;17.00;99.90
37380;DHT22;23252;-33.992;18.480;2023-05-31T15:01:31;17.00;99.90
37380;DHT22;23252;-33.992;18.480;2023-05-31T15:03:58;16.90;99.90
37380;DHT22;23252;-33.992;18.480;2023-05-31T15:06:24;16.90;99.90
37380;DHT22;23252;-33.992;18.480;2023-05-31T15:08:51;16.90;99.90
37380;DHT22;23252;-33.992;18.480;2023-05-31T15:11:18;16.80;99.90
37380;DHT22;23252;-33.992;18.480;2023-05-31T15:13:44;16.80;99.90
37380;DHT22;23252;-33.992;18.480;2023-05-31T15:16:11;16.70;99.90
37380;DHT22;23252;-33.992;18.480;2023-05-31T15:18:37;16.70;99.90
37380;DHT22;23252;-33.992;18.480;2023-05-31T15:21:04;16.70;99.90
37380;DHT22;23252;-33.992;18.480;2023-05-31T15:23:32;16.70;99.90
37380;DHT22;23252;-33.992;18.480;2023-05-31T15:25:59;16.60;99.90
37380;DHT22;23252;-33.992;18.480;2023-05-31T15:28:26;16.60;99.90
37380;DHT22;23252;-33.992;18.480;2023-05-31T15:30:53;16.60;99.90
37380;DHT22;23252;-33.992;18.480;2023-05-31T15:33:19;16.60;99.90
37380;DHT22;23252;-33.992;18.480;2023-05-31T15:35:46;16.50;99.90
37380;DHT22;23252;-33.992;18.480;2023-05-31T15:38:12;16.50;99.90
37380;DHT22;23252;-33.992;18.480;2023-05-31T15:40:38;16.40;99.90
37380;DHT22;23252;-33.992;18.480;2023-05-31T15:43:05;16.40;99.90
37380;DHT22;23252;-33.992;18.480;2023-05-31T15:45:31;16.40;99.90
37380;DHT22;23252;-33.992;18.480;2023-05-31T15:47:58;16.40;99.90
37380;DHT22;23252;-33.992;18.480;2023-05-31T15:50:24;16.30;99.90
37380;DHT22;23252;-33.992;18.480;2023-05-31T15:52:51;16.30;99.90
37380;DHT22;23252;-33.992;18.480;2023-05-31T15:55:17;16.20;99.90
37380;DHT22;23252;-33.992;18.480;2023-05-31T15:57:44;16.20;99.90
37380;DHT22;23252;-33.992;18.480;2023-05-31T16:00:11;16.20;99.90
37380;DHT22;23252;-33.992;18.480;2023-05-31T16:02:37;16.20;99.90
37380;DHT22;23252;-33.992;18.480;2023-05-31T16:05:04;16.20;99.90
37380;DHT22;23252;-33.992;18.480;2023-05-31T16:07:33;16.20;99.90
37380;DHT22;23252;-33.992;18.480;2023-05-31T16:09:59;16.20;99.90
37380;DHT22;23252;-33.992;18.480;2023-05-31T16:12:26;16.20;99.90
37380;DHT22;23252;-33.992;18.480;2023-05-31T16:14:52;16.10;99.90
37380;DHT22;23252;-33.992;18.480;2023-05-31T16:17:19;16.10;99.90
37380;DHT22;23252;-33.992;18.480;2023-05-31T16:19:45;16.20;99.90
37380;DHT22;23252;-33.992;18.480;2023-05-31T16:22:12;16.10;99.90
37380;DHT22;23252;-33.992;18.480;2023-05-31T16:24:38;16.10;99.90
37380;DHT22;23252;-33.992;18.480;2023-05-31T16:27:05;16.10;99.90
37380;DHT22;23252;-33.992;18.480;2023-05-31T16:29:32;16.10;99.90
37380;DHT22;23252;-33.992;18.480;2023-05-31T16:31:58;16.10;99.90
37380;DHT22;23252;-33.992;18.480;2023-05-31T16:34:24;16.10;99.90
37380;DHT22;23252;-33.992;18.480;2023-05-31T16:36:51;16.10;99.90
37380;DHT22;23252;-33.992;18.480;2023-05-31T16:39:17;16.00;99.90
37380;DHT22;23252;-33.992;18.480;2023-05-31T16:41:44;16.10;99.90
37380;DHT22;23252;-33.992;18.480;2023-05-31T16:44:10;16.00;99.90
37380;DHT22;23252;-33.992;18.480;2023-05-31T16:46:37;16.00;99.90
37380;DHT22;23252;-33.992;18.480;2023-05-31T16:49:03;16.00;99.90
37380;DHT22;23252;-33.992;18.480;2023-05-31T16:51:30;16.00;99.90
37380;DHT22;23252;-33.992;18.480;2023-05-31T16:53:57;15.90;99.90
37380;DHT22;23252;-33.992;18.480;2023-05-31T16:56:24;15.90;99.90
37380;DHT22;23252;-33.992;18.480;2023-05-31T16:58:50;16.00;99.90
37380;DHT22;23252;-33.992;18.480;2023-05-31T17:01:17;16.00;99.90
37380;DHT22;23252;-33.992;18.480;2023-05-31T17:03:43;16.00;99.90
37380;DHT22;23252;-33.992;18.480;2023-05-31T17:06:10;16.00;99.90
37380;DHT22;23252;-33.992;18.480;2023-05-31T17:08:36;16.00;99.90
37380;DHT22;23252;-33.992;18.480;2023-05-31T17:11:03;16.00;99.90
37380;DHT22;23252;-33.992;18.480;2023-05-31T17:13:31;16.00;99.90
37380;DHT22;23252;-33.992;18.480;2023-05-31T17:15:57;16.00;99.90
37380;DHT22;23252;-33.992;18.480;2023-05-31T17:18:24;16.00;99.90
37380;DHT22;23252;-33.992;18.480;2023-05-31T17:20:50;16.00;99.90
37380;DHT22;23252;-33.992;18.480;2023-05-31T17:23:18;16.00;99.90
37380;DHT22;23252;-33.992;18.480;2023-05-31T17:25:45;16.10;99.90
37380;DHT22;23252;-33.992;18.480;2023-05-31T17:28:12;16.10;99.90
37380;DHT22;23252;-33.992;18.480;2023-05-31T17:30:39;16.10;99.90
37380;DHT22;23252;-33.992;18.480;2023-05-31T17:33:06;16.10;99.90
37380;DHT22;23252;-33.992;18.480;2023-05-31T17:35:32;16.00;99.90
37380;DHT22;23252;-33.992;18.480;2023-05-31T17:37:58;16.00;99.90
37380;DHT22;23252;-33.992;18.480;2023-05-31T17:40:25;16.10;99.90
37380;DHT22;23252;-33.992;18.480;2023-05-31T17:42:51;16.00;99.90
37380;DHT22;23252;-33.992;18.480;2023-05-31T17:45:18;16.10;99.90
37380;DHT22;23252;-33.992;18.480;2023-05-31T17:47:44;16.10;99.90
37380;DHT22;23252;-33.992;18.480;2023-05-31T17:50:11;16.10;99.90
37380;DHT22;23252;-33.992;18.480;2023-05-31T17:52:38;16.10;99.90
37380;DHT22;23252;-33.992;18.480;2023-05-31T17:55:05;16.10;99.90
37380;DHT22;23252;-33.992;18.480;2023-05-31T17:57:33;16.10;99.90
37380;DHT22;23252;-33.992;18.480;2023-05-31T18:00:00;16.10;99.90
37380;DHT22;23252;-33.992;18.480;2023-05-31T18:02:28;16.10;99.90
37380;DHT22;23252;-33.992;18.480;2023-05-31T18:04:55;16.10;99.90
37380;DHT22;23252;-33.992;18.480;2023-05-31T18:07:21;16.10;99.90
37380;DHT22;23252;-33.992;18.480;2023-05-31T22:13:18;15.20;99.90
37380;DHT22;23252;-33.992;18.480;2023-05-31T22:15:45;15.30;99.90
37380;DHT22;23252;-33.992;18.480;2023-05-31T22:18:17;15.30;99.90
37380;DHT22;23252;-33.992;18.480;2023-05-31T22:20:48;15.30;99.90
37380;DHT22;23252;-33.992;18.480;2023-05-31T22:23:21;15.30;99.90
37380;DHT22;23252;-33.992;18.480;2023-05-31T22:25:49;15.30;99.90
37380;DHT22;23252;-33.992;18.480;2023-05-31T22:28:16;15.40;99.90
37380;DHT22;23252;-33.992;18.480;2023-05-31T22:30:42;15.40;99.90
37380;DHT22;23252;-33.992;18.480;2023-05-31T22:33:09;15.40;99.90
37380;DHT22;23252;-33.992;18.480;2023-05-31T22:35:35;15.40;99.90
37380;DHT22;23252;-33.992;18.480;2023-05-31T22:38:02;15.40;99.90
37380;DHT22;23252;-33.992;18.480;2023-05-31T22:40:28;15.50;99.90
37380;DHT22;23252;-33.992;18.480;2023-05-31T22:42:55;15.50;99.90
37380;DHT22;23252;-33.992;18.480;2023-05-31T22:45:22;15.50;99.90
37380;DHT22;23252;-33.992;18.480;2023-05-31T22:47:49;15.50;99.90
37380;DHT22;23252;-33.992;18.480;2023-05-31T22:50:16;15.50;99.90
37380;DHT22;23252;-33.992;18.480;2023-05-31T22:52:43;15.50;99.90
37380;DHT22;23252;-33.992;18.480;2023-05-31T22:55:13;15.60;99.90
37380;DHT22;23252;-33.992;18.480;2023-05-31T22:57:40;15.60;99.90
37380;DHT22;23252;-33.992;18.480;2023-05-31T23:00:07;15.60;99.90
37380;DHT22;23252;-33.992;18.480;2023-05-31T23:02:43;15.50;99.90
37380;DHT22;23252;-33.992;18.480;2023-05-31T23:05:11;15.60;99.90
37380;DHT22;23252;-33.992;18.480;2023-05-31T23:07:38;15.60;99.90
37380;DHT22;23252;-33.992;18.480;2023-05-31T23:10:13;15.60;99.90
37380;DHT22;23252;-33.992;18.480;2023-05-31T23:12:42;15.60;99.90
37380;DHT22;23252;-33.992;18.480;2023-05-31T23:15:10;15.60;99.90
37380;DHT22;23252;-33.992;18.480;2023-05-31T23:17:41;15.60;99.90
37380;DHT22;23252;-33.992;18.480;2023-05-31T23:20:09;15.60;99.90
37380;DHT22;23252;-33.992;18.480;2023-05-31T23:22:44;15.60;99.90
37380;DHT22;23252;-33.992;18.480;2023-05-31T23:25:12;15.70;99.90
37380;DHT22;23252;-33.992;18.480;2023-05-31T23:27:40;15.70;99.90
37380;DHT22;23252;-33.992;18.480;2023-05-31T23:30:11;15.70;99.90
37380;DHT22;23252;-33.992;18.480;2023-05-31T23:32:39;15.70;99.90
37380;DHT22;23252;-33.992;18.480;2023-05-31T23:35:05;15.70;99.90
37380;DHT22;23252;-33.992;18.480;2023-05-31T23:37:32;15.70;99.90
37380;DHT22;23252;-33.992;18.480;2023-05-31T23:40:00;15.70;99.90
37380;DHT22;23252;-33.992;18.480;2023-05-31T23:42:26;15.70;99.90
37380;DHT22;23252;-33.992;18.480;2023-05-31T23:44:53;15.70;99.90
37380;DHT22;23252;-33.992;18.480;2023-05-31T23:47:19;15.60;99.90
37380;DHT22;23252;-33.992;18.480;2023-05-31T23:49:46;15.60;99.90
37380;DHT22;23252;-33.992;18.480;2023-05-31T23:52:12;15.70;99.90